Time;durP1;ratioP1;P1;durP2;ratioP2;P2;SDS_P1;SDS_P2;PMS_P1;PMS_P2;Temp;Humidity;BMP_temperature;BMP_pressure;BME280_temperature;BME280_humidity;BME280_pressure;Samples;Min_cycle;Max_cycle;Signal;HPM_P1;HPM_P2
2023/08/26 00:00:25;;;;;;;19.77;17.75;;;21.30;99.90;;;;;;2495590;23;20143;-73
2023/08/26 00:01:25;;;;;;;20.30;18.13;;;21.30;99.90;;;;;;2494034;23;20007;-73
2023/08/26 00:02:26;;;;;;;19.73;17.65;;;21.30;99.90;;;;;;2492556;23;20014;-72
2023/08/26 00:03:27;;;;;;;23.20;19.02;;;21.30;99.90;;;;;;2495418;23;20054;-72
2023/08/26 00:04:27;;;;;;;20.98;18.88;;;21.20;99.90;;;;;;2493740;23;20015;-72
2023/08/26 00:05:28;;;;;;;17.80;15.93;;;21.20;99.90;;;;;;2494343;23;20018;-72
2023/08/26 00:06:28;;;;;;;18.77;16.92;;;21.20;99.90;;;;;;2495154;23;20015;-72
2023/08/26 00:07:29;;;;;;;18.85;16.92;;;21.20;99.90;;;;;;2495150;23;20011;-72
2023/08/26 00:08:29;;;;;;;17.33;15.63;;;21.20;99.90;;;;;;2495389;23;20492;-72
2023/08/26 00:09:30;;;;;;;15.90;13.35;;;21.20;99.90;;;;;;2494334;23;20015;-72
2023/08/26 00:10:30;;;;;;;16.23;14.63;;;21.20;99.90;;;;;;2493722;23;20018;-72
2023/08/26 00:11:31;;;;;;;18.58;16.55;;;21.10;99.90;;;;;;2495241;23;20372;-72
2023/08/26 00:12:31;;;;;;;21.13;17.42;;;21.10;99.90;;;;;;2492913;23;20031;-72
2023/08/26 00:13:32;;;;;;;19.40;17.38;;;21.10;99.90;;;;;;2494755;23;20035;-72
2023/08/26 00:14:32;;;;;;;21.08;18.90;;;21.10;99.90;;;;;;2482631;23;20051;-72
2023/08/26 00:15:33;;;;;;;18.25;16.35;;;21.10;99.90;;;;;;2482879;23;20103;-72
2023/08/26 00:16:33;;;;;;;20.48;18.45;;;21.10;99.90;;;;;;2493616;23;20102;-72
2023/08/26 00:17:34;;;;;;;16.83;15.13;;;21.10;99.90;;;;;;2494170;23;20004;-72
2023/08/26 00:18:34;;;;;;;20.67;18.55;;;21.10;99.90;;;;;;2495424;23;20007;-72
2023/08/26 00:19:35;;;;;;;21.70;19.50;;;21.10;99.90;;;;;;2495311;23;20003;-72
2023/08/26 00:20:35;;;;;;;18.08;16.25;;;21.10;99.90;;;;;;2494256;23;20087;-72
2023/08/26 00:21:37;;;;;;;21.33;17.30;;;21.00;99.90;;;;;;2494326;23;20018;-72
2023/08/26 00:22:38;;;;;;;21.50;19.45;;;21.00;99.90;;;;;;2493575;23;20013;-72
2023/08/26 00:23:39;;;;;;;19.13;16.95;;;21.00;99.90;;;;;;2494515;23;20095;-72
2023/08/26 00:24:39;;;;;;;21.40;18.75;;;21.00;99.90;;;;;;2494310;23;20012;-72
2023/08/26 00:25:40;;;;;;;19.42;17.38;;;21.00;99.90;;;;;;2493236;23;20067;-72
2023/08/26 00:26:40;;;;;;;16.38;14.77;;;21.00;99.90;;;;;;2494354;23;20098;-72
2023/08/26 00:27:41;;;;;;;19.17;17.27;;;21.00;99.90;;;;;;2495221;23;20022;-72
2023/08/26 00:28:42;;;;;;;21.20;19.10;;;21.00;99.90;;;;;;2495150;23;20031;-72
2023/08/26 00:29:42;;;;;;;21.75;19.55;;;21.00;99.90;;;;;;2494862;23;20018;-72
2023/08/26 00:30:44;;;;;;;24.77;19.30;;;21.00;99.90;;;;;;2494946;23;20340;-72
2023/08/26 00:31:44;;;;;;;20.10;17.98;;;21.00;99.90;;;;;;2493877;23;20117;-72
2023/08/26 00:32:45;;;;;;;21.45;19.35;;;21.00;99.90;;;;;;2493179;23;20008;-72
2023/08/26 00:33:45;;;;;;;15.27;13.77;;;21.00;99.90;;;;;;2494898;23;19999;-72
2023/08/26 00:34:46;;;;;;;19.48;17.40;;;21.00;99.90;;;;;;2494792;23;20421;-72
2023/08/26 00:35:47;;;;;;;19.42;17.52;;;21.00;99.90;;;;;;2494294;23;20011;-72
2023/08/26 00:36:47;;;;;;;22.52;20.30;;;21.00;99.90;;;;;;2494563;23;20078;-72
2023/08/26 00:37:49;;;;;;;21.52;19.42;;;20.90;99.90;;;;;;2494754;23;20437;-72
2023/08/26 00:38:49;;;;;;;23.45;20.83;;;21.00;99.90;;;;;;2495463;23;20003;-72
2023/08/26 00:39:50;;;;;;;18.50;16.65;;;21.00;99.90;;;;;;2492357;23;20087;-72
2023/08/26 00:40:50;;;;;;;19.52;17.65;;;21.00;99.90;;;;;;2494246;23;20004;-72
2023/08/26 00:41:51;;;;;;;19.02;17.13;;;21.00;99.90;;;;;;2494640;23;20054;-72
2023/08/26 00:42:53;;;;;;;21.48;18.73;;;21.00;99.90;;;;;;2494732;23;20067;-72
2023/08/26 00:43:54;;;;;;;19.75;17.75;;;21.00;99.90;;;;;;2494503;23;20039;-72
2023/08/26 00:44:54;;;;;;;22.38;19.75;;;21.00;99.90;;;;;;2494752;23;20003;-72
2023/08/26 00:45:55;;;;;;;22.55;20.30;;;21.00;99.90;;;;;;2494211;23;20460;-72
2023/08/26 00:46:56;;;;;;;23.83;21.30;;;20.90;99.90;;;;;;2495199;23;20451;-72
2023/08/26 00:47:57;;;;;;;25.60;21.33;;;21.00;99.90;;;;;;2493552;23;20003;-72
2023/08/26 00:48:59;;;;;;;22.90;20.50;;;21.00;99.90;;;;;;2494325;23;20000;-72
2023/08/26 00:49:59;;;;;;;24.73;22.23;;;21.00;99.90;;;;;;2494333;23;20014;-72
2023/08/26 00:51:00;;;;;;;19.30;17.33;;;21.00;99.90;;;;;;2481893;23;20012;-72
2023/08/26 00:52:01;;;;;;;24.48;21.88;;;20.90;99.90;;;;;;2481340;23;20104;-72
2023/08/26 00:53:02;;;;;;;20.98;18.75;;;20.90;99.90;;;;;;2495584;23;19999;-72
2023/08/26 00:54:04;;;;;;;21.33;18.95;;;20.90;99.90;;;;;;2495223;23;20007;-72
2023/08/26 00:55:06;;;;;;;19.48;17.27;;;20.90;99.90;;;;;;2495518;23;20071;-72
2023/08/26 00:56:07;;;;;;;21.55;18.85;;;20.90;99.90;;;;;;2481477;23;20336;-72
2023/08/26 00:57:09;;;;;;;18.55;16.67;;;20.90;99.90;;;;;;2482270;23;20058;-72
2023/08/26 00:58:10;;;;;;;20.85;18.88;;;20.90;99.90;;;;;;2495951;23;20003;-72
2023/08/26 00:59:11;;;;;;;22.80;20.30;;;20.90;99.90;;;;;;2495778;23;20448;-72
2023/08/26 01:00:12;;;;;;;20.60;18.50;;;20.90;99.90;;;;;;2495931;23;20771;-72
2023/08/26 01:01:12;;;;;;;24.30;21.88;;;20.90;99.90;;;;;;2495936;23;20007;-72
2023/08/26 01:02:13;;;;;;;24.55;20.42;;;20.90;99.90;;;;;;2494838;23;20011;-72
2023/08/26 01:03:13;;;;;;;27.73;24.63;;;20.90;99.90;;;;;;2495757;23;20007;-72
2023/08/26 01:04:16;;;;;;;29.35;21.55;;;20.90;99.90;;;;;;2495854;23;20015;-72
2023/08/26 01:05:16;;;;;;;23.55;20.15;;;20.90;99.90;;;;;;2495557;23;20046;-72
2023/08/26 01:06:17;;;;;;;27.13;24.30;;;20.90;99.90;;;;;;2495311;23;20111;-72
2023/08/26 01:07:20;;;;;;;22.25;19.90;;;20.90;99.90;;;;;;2495599;23;20068;-72
2023/08/26 01:08:21;;;;;;;25.90;23.30;;;20.90;99.90;;;;;;2495189;23;20015;-72
2023/08/26 01:09:22;;;;;;;24.83;20.65;;;20.90;99.90;;;;;;2483439;23;20015;-72
2023/08/26 01:10:33;;;;;;;23.55;21.15;;;20.90;99.90;;;;;;2483477;23;20552;-72
2023/08/26 01:12:12;;;;;;;23.33;20.85;;;20.80;99.90;;;;;;2494941;23;20091;-72
2023/08/26 01:13:15;;;;;;;28.17;24.55;;;20.80;99.90;;;;;;2489695;23;20063;-72
2023/08/26 01:14:28;;;;;;;25.13;19.98;;;20.80;99.90;;;;;;2495742;23;20027;-71
2023/08/26 01:15:31;;;;;;;30.10;25.48;;;20.80;99.90;;;;;;2495243;23;20403;-72
2023/08/26 01:16:34;;;;;;;24.83;22.08;;;20.80;99.90;;;;;;2494931;23;20432;-72
2023/08/26 01:17:35;;;;;;;30.67;26.52;;;20.80;99.90;;;;;;2495170;23;20424;-72
2023/08/26 01:18:36;;;;;;;30.63;26.67;;;20.80;99.90;;;;;;2496206;23;20015;-72
2023/08/26 01:19:39;;;;;;;25.60;22.92;;;20.80;99.90;;;;;;2494994;23;20464;-72
2023/08/26 01:20:42;;;;;;;30.42;27.20;;;20.80;99.90;;;;;;2494771;23;20003;-72
2023/08/26 01:21:46;;;;;;;28.02;25.13;;;20.70;99.90;;;;;;2495966;23;20011;-72
2023/08/26 01:22:51;;;;;;;26.60;23.92;;;20.70;99.90;;;;;;2494846;23;20011;-71
2023/08/26 01:23:53;;;;;;;27.95;25.15;;;20.70;99.90;;;;;;2495339;23;20043;-72
2023/08/26 01:24:54;;;;;;;24.42;21.83;;;20.70;99.90;;;;;;2494817;23;20031;-71
2023/08/26 01:25:55;;;;;;;23.98;21.48;;;20.70;99.90;;;;;;2482408;23;20008;-72
2023/08/26 01:26:55;;;;;;;28.13;24.85;;;20.70;99.90;;;;;;2483374;23;20006;-71
2023/08/26 01:27:57;;;;;;;26.33;23.38;;;20.70;99.90;;;;;;2496051;23;20007;-72
2023/08/26 01:28:58;;;;;;;28.60;25.70;;;20.70;99.90;;;;;;2494811;23;19999;-72
2023/08/26 01:29:59;;;;;;;23.63;20.40;;;20.70;99.90;;;;;;2496318;23;19999;-72
2023/08/26 01:31:04;;;;;;;27.38;24.45;;;20.70;99.90;;;;;;2494202;23;20003;-72
2023/08/26 01:32:30;;;;;;;30.98;26.65;;;20.70;99.90;;;;;;2493337;23;20011;-72
2023/08/26 01:33:49;;;;;;;26.70;23.90;;;20.70;99.90;;;;;;2495526;23;20011;-71
2023/08/26 01:34:58;;;;;;;27.52;24.27;;;20.70;99.90;;;;;;2495717;23;20448;-72
2023/08/26 01:36:03;;;;;;;30.05;26.88;;;20.70;99.90;;;;;;2495878;23;20370;-72
2023/08/26 01:37:06;;;;;;;29.95;25.25;;;20.70;99.90;;;;;;2495406;23;20551;-71
2023/08/26 01:38:08;;;;;;;28.98;25.95;;;20.70;99.90;;;;;;2495678;23;20003;-72
2023/08/26 01:39:13;;;;;;;29.20;26.13;;;20.70;99.90;;;;;;2496049;23;20013;-71
2023/08/26 01:40:13;;;;;;;34.45;27.95;;;20.60;99.90;;;;;;2495836;23;19999;-72
2023/08/26 01:41:18;;;;;;;30.10;27.02;;;20.60;99.90;;;;;;2495694;23;20003;-71
2023/08/26 01:42:22;;;;;;;28.88;25.85;;;20.60;99.90;;;;;;2495527;23;20090;-72
2023/08/26 01:43:23;;;;;;;28.15;25.08;;;20.60;99.90;;;;;;2495461;23;20417;-72
2023/08/26 01:44:25;;;;;;;28.58;25.58;;;20.60;99.90;;;;;;2495630;23;20011;-72
2023/08/26 01:45:25;;;;;;;31.98;26.58;;;20.60;99.90;;;;;;2494086;23;20014;-72
2023/08/26 01:46:36;;;;;;;29.65;26.58;;;20.60;99.90;;;;;;2495774;23;20007;-71
2023/08/26 01:47:37;;;;;;;28.83;26.00;;;20.60;99.90;;;;;;2494862;23;20049;-71
2023/08/26 01:48:38;;;;;;;27.95;24.30;;;20.60;99.90;;;;;;2494524;23;20030;-72
2023/08/26 01:49:39;;;;;;;22.73;20.40;;;20.60;99.90;;;;;;2495548;23;20416;-71
2023/08/26 01:50:40;;;;;;;25.77;23.17;;;20.60;99.90;;;;;;2482927;23;20008;-72
2023/08/26 01:51:40;;;;;;;26.67;22.83;;;20.60;99.90;;;;;;2482662;23;20012;-72
2023/08/26 01:52:41;;;;;;;25.40;22.70;;;20.60;99.90;;;;;;2495063;23;20083;-72
2023/08/26 01:53:42;;;;;;;27.00;24.15;;;20.60;99.90;;;;;;2495911;23;20010;-71
2023/08/26 01:54:42;;;;;;;24.48;21.77;;;20.60;99.90;;;;;;2495113;23;20000;-72
2023/08/26 01:55:43;;;;;;;22.20;19.88;;;20.50;99.90;;;;;;2494583;23;20007;-72
2023/08/26 01:56:43;;;;;;;25.58;22.98;;;20.50;99.90;;;;;;2495463;23;20003;-72
2023/08/26 01:57:44;;;;;;;29.55;23.08;;;20.50;99.90;;;;;;2494864;23;20085;-72
2023/08/26 01:58:44;;;;;;;25.30;22.70;;;20.50;99.90;;;;;;2483165;23;20326;-71
2023/08/26 01:59:45;;;;;;;25.10;22.67;;;20.50;99.90;;;;;;2482929;23;20036;-72
2023/08/26 02:00:46;;;;;;;23.67;21.27;;;20.50;99.90;;;;;;2495523;23;20027;-72
2023/08/26 02:01:46;;;;;;;23.65;21.10;;;20.50;99.90;;;;;;2494703;23;20007;-72
2023/08/26 02:02:47;;;;;;;23.88;21.27;;;20.50;99.90;;;;;;2493952;23;20521;-72
2023/08/26 02:03:47;;;;;;;25.00;21.17;;;20.50;99.90;;;;;;2495135;23;20008;-72
2023/08/26 02:04:48;;;;;;;22.88;20.48;;;20.50;99.90;;;;;;2496018;23;20082;-72
2023/08/26 02:05:48;;;;;;;21.13;18.88;;;20.50;99.90;;;;;;2493910;23;20015;-72
2023/08/26 02:06:49;;;;;;;19.13;17.23;;;20.50;99.90;;;;;;2495076;23;20054;-72
2023/08/26 02:07:49;;;;;;;23.35;19.60;;;20.50;99.90;;;;;;2495003;23;20003;-72
2023/08/26 02:08:52;;;;;;;24.90;19.60;;;20.40;99.90;;;;;;2495287;23;20038;-72
2023/08/26 02:09:52;;;;;;;24.20;20.88;;;20.40;99.90;;;;;;2496066;23;20090;-72
2023/08/26 02:10:54;;;;;;;19.75;16.13;;;20.40;99.90;;;;;;2495385;23;20003;-72
2023/08/26 02:11:55;;;;;;;20.40;18.40;;;20.40;99.90;;;;;;2495796;23;20007;-72
2023/08/26 02:12:55;;;;;;;17.02;15.23;;;20.40;99.90;;;;;;2494473;23;20026;-72
2023/08/26 02:13:56;;;;;;;23.95;19.52;;;20.40;99.90;;;;;;2495623;23;20001;-72
2023/08/26 02:14:57;;;;;;;20.60;18.60;;;20.40;99.90;;;;;;2495778;23;20006;-72
2023/08/26 02:15:58;;;;;;;18.60;16.52;;;20.40;99.90;;;;;;2495560;23;20003;-72
2023/08/26 02:16:58;;;;;;;20.88;17.23;;;20.40;99.90;;;;;;2495166;23;20026;-72
2023/08/26 02:17:59;;;;;;;18.92;16.92;;;20.40;99.90;;;;;;2496308;23;20369;-72
2023/08/26 02:18:59;;;;;;;20.15;17.77;;;20.40;99.90;;;;;;2494593;23;20113;-72
2023/08/26 02:20:00;;;;;;;18.23;16.20;;;20.40;99.90;;;;;;2495774;23;20067;-72
2023/08/26 02:21:00;;;;;;;19.27;17.00;;;20.40;99.90;;;;;;2494855;23;20008;-72
2023/08/26 02:22:01;;;;;;;20.42;17.33;;;20.40;99.90;;;;;;2495436;23;20589;-72
2023/08/26 02:23:02;;;;;;;18.90;16.88;;;20.40;99.90;;;;;;2494828;23;20083;-72
2023/08/26 02:24:03;;;;;;;16.92;15.27;;;20.40;99.90;;;;;;2494594;23;20000;-72
2023/08/26 02:25:04;;;;;;;18.60;16.70;;;20.40;99.90;;;;;;2481983;23;20444;-72
2023/08/26 02:26:04;;;;;;;19.08;17.08;;;20.30;99.90;;;;;;2495551;23;20413;-72
2023/08/26 02:27:05;;;;;;;19.98;17.85;;;20.30;99.90;;;;;;2495198;23;20365;-72
2023/08/26 02:28:06;;;;;;;17.42;15.68;;;20.30;99.90;;;;;;2495867;23;19999;-72
2023/08/26 02:29:06;;;;;;;19.05;17.15;;;20.30;99.90;;;;;;2495765;23;20314;-72
2023/08/26 02:30:08;;;;;;;16.80;15.15;;;20.30;99.90;;;;;;2495852;23;19999;-72
2023/08/26 02:31:08;;;;;;;20.42;15.93;;;20.30;99.90;;;;;;2495696;23;20007;-72
2023/08/26 02:32:09;;;;;;;19.05;16.20;;;20.30;99.90;;;;;;2494699;23;20030;-72
2023/08/26 02:33:09;;;;;;;20.90;16.67;;;20.30;99.90;;;;;;2495681;23;20003;-72
2023/08/26 02:34:10;;;;;;;19.10;17.10;;;20.30;99.90;;;;;;2495015;23;20662;-72
2023/08/26 02:35:10;;;;;;;17.30;15.50;;;20.30;99.90;;;;;;2495566;23;20007;-72
2023/08/26 02:36:11;;;;;;;17.42;15.43;;;20.30;99.90;;;;;;2495476;23;20014;-72
2023/08/26 02:37:12;;;;;;;19.13;17.33;;;20.30;99.90;;;;;;2495910;23;20081;-72
2023/08/26 02:38:13;;;;;;;19.58;17.58;;;20.30;99.90;;;;;;2495083;23;20090;-72
2023/08/26 02:39:13;;;;;;;21.85;17.17;;;20.30;99.90;;;;;;2495867;23;20332;-74
2023/08/26 02:40:14;;;;;;;14.18;10.23;;;20.20;99.90;;;;;;2495492;23;20012;-72
2023/08/26 02:41:15;;;;;;;8.55;7.65;;;20.10;99.90;;;;;;2495488;23;20067;-72
2023/08/26 02:42:15;;;;;;;6.57;5.47;;;20.10;99.90;;;;;;2494684;23;20004;-73
2023/08/26 02:43:16;;;;;;;6.60;4.93;;;20.00;99.90;;;;;;2495793;23;20011;-73
2023/08/26 02:44:16;;;;;;;7.15;4.82;;;19.90;99.90;;;;;;2495522;23;20007;-73
2023/08/26 02:45:17;;;;;;;9.75;3.35;;;19.90;99.90;;;;;;2495861;23;20090;-72
2023/08/26 02:46:17;;;;;;;5.13;3.05;;;19.80;99.90;;;;;;2495640;23;20055;-74
2023/08/26 02:47:18;;;;;;;5.00;2.97;;;19.70;99.90;;;;;;2496003;23;20022;-74
2023/08/26 02:48:20;;;;;;;7.45;3.45;;;19.60;99.90;;;;;;2495400;23;20014;-73
2023/08/26 02:49:20;;;;;;;4.55;2.30;;;19.60;99.90;;;;;;2495758;23;20011;-73
2023/08/26 02:50:21;;;;;;;4.75;2.33;;;19.50;99.90;;;;;;2495300;23;20018;-73
2023/08/26 02:51:21;;;;;;;3.58;2.42;;;19.50;99.90;;;;;;2495275;23;20041;-73
2023/08/26 02:52:22;;;;;;;4.22;2.42;;;19.40;99.90;;;;;;2494982;23;20067;-72
2023/08/26 02:53:25;;;;;;;3.63;1.75;;;19.40;99.90;;;;;;2495917;23;20035;-73
2023/08/26 02:54:25;;;;;;;4.00;1.90;;;19.30;99.90;;;;;;2496075;23;19999;-73
2023/08/26 02:55:26;;;;;;;6.10;1.98;;;19.30;99.90;;;;;;2495897;23;20009;-73
2023/08/26 02:56:26;;;;;;;2.47;1.80;;;19.20;99.90;;;;;;2495641;23;20007;-73
2023/08/26 02:57:27;;;;;;;4.75;2.00;;;19.20;99.90;;;;;;2494635;23;20082;-73
2023/08/26 02:58:27;;;;;;;6.20;1.60;;;19.10;99.90;;;;;;2494620;23;20429;-73
2023/08/26 02:59:29;;;;;;;4.07;1.65;;;19.10;99.90;;;;;;2495989;23;20003;-73
2023/08/26 03:00:30;;;;;;;6.97;2.00;;;19.00;99.90;;;;;;2495774;23;20130;-73
2023/08/26 03:01:31;;;;;;;4.38;2.03;;;19.00;99.90;;;;;;2495066;23;20034;-73
2023/08/26 03:02:31;;;;;;;3.45;2.20;;;18.90;99.90;;;;;;2494788;23;20087;-73
2023/08/26 03:03:32;;;;;;;5.28;1.90;;;18.90;99.90;;;;;;2482473;23;20023;-72
2023/08/26 03:04:34;;;;;;;5.20;2.03;;;18.90;99.90;;;;;;2483563;23;20008;-73
2023/08/26 03:05:34;;;;;;;9.75;1.90;;;18.90;99.90;;;;;;2483588;23;20012;-73
2023/08/26 03:06:35;;;;;;;3.40;1.73;;;18.90;99.90;;;;;;2495264;23;20067;-73
2023/08/26 03:07:36;;;;;;;3.80;2.22;;;18.90;99.90;;;;;;2495409;23;20015;-72
2023/08/26 03:08:36;;;;;;;5.13;1.55;;;18.80;99.90;;;;;;2495757;23;20011;-73
2023/08/26 03:09:36;;;;;;;6.13;1.75;;;18.80;99.90;;;;;;2496090;23;20427;-73
2023/08/26 03:10:37;;;;;;;2.80;1.80;;;18.80;99.90;;;;;;2483655;23;20034;-73
2023/08/26 03:11:38;;;;;;;6.13;1.95;;;18.80;99.90;;;;;;2483109;23;20128;-72
2023/08/26 03:12:38;;;;;;;5.85;1.73;;;18.70;99.90;;;;;;2493970;23;20010;-73
2023/08/26 03:13:39;;;;;;;6.60;2.15;;;18.70;99.90;;;;;;2496194;23;20011;-72
2023/08/26 03:14:39;;;;;;;3.78;1.90;;;18.70;99.90;;;;;;2495772;23;20003;-72
2023/08/26 03:15:40;;;;;;;3.95;2.00;;;18.60;99.90;;;;;;2495940;23;20046;-72
2023/08/26 03:16:40;;;;;;;5.00;1.70;;;18.60;99.90;;;;;;2495198;23;20042;-72
2023/08/26 03:17:41;;;;;;;4.43;1.85;;;18.60;99.90;;;;;;2495884;23;20007;-72
2023/08/26 03:18:42;;;;;;;3.53;1.80;;;18.60;99.90;;;;;;2495312;23;20023;-72
2023/08/26 03:19:42;;;;;;;5.10;2.15;;;18.50;99.90;;;;;;2495291;23;20003;-73
2023/08/26 03:20:43;;;;;;;6.32;1.80;;;18.50;99.90;;;;;;2495285;23;20055;-72
2023/08/26 03:21:43;;;;;;;7.07;2.35;;;18.50;99.90;;;;;;2495510;23;20014;-73
2023/08/26 03:22:45;;;;;;;3.67;1.55;;;18.50;99.90;;;;;;2494809;23;20041;-72
2023/08/26 03:23:46;;;;;;;7.00;1.80;;;18.40;99.90;;;;;;2496202;23;20007;-72
2023/08/26 03:24:46;;;;;;;4.47;1.70;;;18.40;99.90;;;;;;2483568;23;20528;-72
2023/08/26 03:25:47;;;;;;;5.00;1.88;;;18.40;99.90;;;;;;2483850;23;20044;-73
2023/08/26 03:26:47;;;;;;;5.65;1.95;;;18.30;99.90;;;;;;2484875;23;20344;-73
2023/08/26 03:27:48;;;;;;;7.32;2.45;;;18.40;99.90;;;;;;2496882;23;20031;-73
2023/08/26 03:28:49;;;;;;;5.18;1.90;;;18.30;99.90;;;;;;2496185;23;20010;-72
2023/08/26 03:29:49;;;;;;;3.60;1.70;;;18.30;99.90;;;;;;2495935;23;20007;-72
2023/08/26 03:30:50;;;;;;;4.90;1.92;;;18.20;99.90;;;;;;2495862;23;20043;-72
2023/08/26 03:31:50;;;;;;;4.00;2.03;;;18.30;99.90;;;;;;2496598;23;20067;-73
2023/08/26 03:32:51;;;;;;;5.82;1.88;;;18.30;99.90;;;;;;2495529;23;20010;-73
2023/08/26 03:33:51;;;;;;;6.22;2.20;;;18.20;99.90;;;;;;2496416;23;20012;-73
2023/08/26 03:34:53;;;;;;;10.00;3.05;;;18.20;99.90;;;;;;2494979;23;20004;-73
2023/08/26 03:35:53;;;;;;;8.15;2.15;;;18.20;99.90;;;;;;2496085;23;20003;-73
2023/08/26 03:36:54;;;;;;;8.30;2.38;;;18.10;99.90;;;;;;2494697;23;20003;-72
2023/08/26 03:37:54;;;;;;;9.15;3.08;;;18.10;99.90;;;;;;2495364;23;20452;-73
2023/08/26 03:38:55;;;;;;;7.35;2.50;;;18.10;99.90;;;;;;2496110;23;20039;-73
2023/08/26 03:39:56;;;;;;;6.90;2.17;;;18.10;99.90;;;;;;2495758;23;20085;-73
2023/08/26 03:40:56;;;;;;;7.53;2.28;;;18.00;99.90;;;;;;2482668;23;20337;-72
2023/08/26 03:41:57;;;;;;;4.10;2.15;;;18.00;99.90;;;;;;2483341;23;20000;-72
2023/08/26 03:42:58;;;;;;;6.90;2.20;;;18.00;99.90;;;;;;2495811;23;20003;-72
2023/08/26 03:43:59;;;;;;;5.88;2.63;;;18.00;99.90;;;;;;2496150;23;19999;-72
2023/08/26 03:44:59;;;;;;;6.80;2.22;;;18.00;99.90;;;;;;2495560;23;20418;-72
2023/08/26 03:46:00;;;;;;;7.47;2.30;;;17.90;99.90;;;;;;2495434;23;20004;-73
2023/08/26 03:47:01;;;;;;;6.10;2.10;;;17.90;99.90;;;;;;2495813;23;20006;-72
2023/08/26 03:48:01;;;;;;;4.80;2.10;;;17.90;99.90;;;;;;2495113;23;20067;-73
2023/08/26 03:49:02;;;;;;;6.15;2.38;;;17.90;99.90;;;;;;2496277;23;20000;-73
2023/08/26 03:50:04;;;;;;;16.23;2.45;;;17.90;99.90;;;;;;2495041;23;20033;-73
2023/08/26 03:51:05;;;;;;;4.63;2.17;;;17.90;99.90;;;;;;2496056;23;20003;-73
2023/08/26 03:52:06;;;;;;;4.70;1.92;;;17.80;99.90;;;;;;2494342;23;20003;-73
2023/08/26 03:53:06;;;;;;;6.05;2.25;;;17.80;99.90;;;;;;2494611;23;20014;-73
2023/08/26 03:54:07;;;;;;;5.93;2.10;;;17.70;99.90;;;;;;2495608;23;20010;-73
2023/08/26 03:55:08;;;;;;;8.68;2.88;;;17.70;99.90;;;;;;2495203;23;20098;-72
2023/08/26 03:56:08;;;;;;;4.45;1.92;;;17.70;99.90;;;;;;2495568;23;20009;-73
2023/08/26 03:57:09;;;;;;;7.78;2.25;;;17.70;99.90;;;;;;2495974;23;20003;-72
2023/08/26 03:58:10;;;;;;;7.57;2.53;;;17.70;99.90;;;;;;2495779;23;20059;-73
2023/08/26 03:59:10;;;;;;;6.15;2.42;;;17.60;99.90;;;;;;2496115;23;20373;-72
2023/08/26 04:00:12;;;;;;;6.93;2.58;;;17.60;99.90;;;;;;2494350;23;20024;-72
2023/08/26 04:01:12;;;;;;;9.32;2.75;;;17.60;99.90;;;;;;2496080;23;20079;-72
2023/08/26 04:02:14;;;;;;;8.10;2.88;;;17.60;99.90;;;;;;2494813;23;20010;-72
2023/08/26 04:03:14;;;;;;;6.43;3.00;;;17.60;99.90;;;;;;2495252;23;20008;-73
2023/08/26 04:04:15;;;;;;;7.00;2.70;;;17.60;99.90;;;;;;2496550;23;20039;-73
2023/08/26 04:05:16;;;;;;;4.07;2.15;;;17.60;99.90;;;;;;2494870;23;20027;-73
2023/08/26 04:06:17;;;;;;;4.50;2.50;;;17.60;99.90;;;;;;2495232;23;20035;-73
2023/08/26 04:07:18;;;;;;;5.97;2.30;;;17.60;99.90;;;;;;2496227;23;20447;-73
2023/08/26 04:08:18;;;;;;;6.55;2.40;;;17.50;99.90;;;;;;2494275;23;20386;-73
2023/08/26 04:09:19;;;;;;;4.93;2.22;;;17.50;99.90;;;;;;2495568;23;20030;-73
2023/08/26 04:10:19;;;;;;;7.38;1.90;;;17.50;99.90;;;;;;2496685;23;20228;-72
2023/08/26 04:11:20;;;;;;;4.80;2.00;;;17.50;99.90;;;;;;2494996;23;20035;-73
2023/08/26 04:12:20;;;;;;;6.53;2.20;;;17.50;99.90;;;;;;2495601;23;20720;-73
2023/08/26 04:13:23;;;;;;;10.20;2.10;;;17.50;99.90;;;;;;2496180;23;20003;-72
2023/08/26 04:14:23;;;;;;;5.10;2.10;;;17.50;99.90;;;;;;2496049;23;20003;-73
2023/08/26 04:15:24;;;;;;;3.60;2.05;;;17.40;99.90;;;;;;2496646;23;20042;-72
2023/08/26 04:16:24;;;;;;;6.97;2.42;;;17.40;99.90;;;;;;2495985;23;20004;-73
2023/08/26 04:17:25;;;;;;;3.42;1.67;;;17.40;99.90;;;;;;2483413;23;20524;-72
2023/08/26 04:18:26;;;;;;;4.72;2.65;;;17.40;99.90;;;;;;2483486;23;20338;-72
2023/08/26 04:19:27;;;;;;;4.95;2.05;;;17.40;99.90;;;;;;2495974;23;19999;-72
2023/08/26 04:20:27;;;;;;;4.88;1.98;;;17.40;99.90;;;;;;2496413;23;20042;-73
2023/08/26 04:21:28;;;;;;;5.72;2.17;;;17.40;99.90;;;;;;2495837;23;20018;-73
2023/08/26 04:22:29;;;;;;;4.68;2.17;;;17.40;99.90;;;;;;2494102;23;20094;-73
2023/08/26 04:23:30;;;;;;;3.63;2.13;;;17.30;99.90;;;;;;2483804;23;20008;-73
2023/08/26 04:24:31;;;;;;;4.85;1.70;;;17.30;99.90;;;;;;2495578;23;20011;-73
2023/08/26 04:25:32;;;;;;;6.90;2.15;;;17.30;99.90;;;;;;2496524;23;20014;-73
2023/08/26 04:26:32;;;;;;;5.22;2.25;;;17.30;99.90;;;;;;2496522;23;20066;-73
2023/08/26 04:27:36;;;;;;;3.83;1.63;;;17.30;99.90;;;;;;2496690;23;20322;-73
2023/08/26 04:28:36;;;;;;;3.88;1.77;;;17.30;99.90;;;;;;2495830;23;20016;-72
2023/08/26 04:29:37;;;;;;;5.40;1.60;;;17.30;99.90;;;;;;2496227;23;20082;-72
2023/08/26 04:30:38;;;;;;;5.78;1.95;;;17.30;99.90;;;;;;2495588;23;20014;-72
2023/08/26 04:31:38;;;;;;;4.10;2.00;;;17.30;99.90;;;;;;2495977;23;20007;-72
2023/08/26 04:32:39;;;;;;;5.50;2.15;;;17.30;99.90;;;;;;2495472;23;20318;-72
2023/08/26 04:33:39;;;;;;;6.97;2.10;;;17.30;99.90;;;;;;2496312;23;20004;-73
2023/08/26 04:34:40;;;;;;;4.93;2.47;;;17.30;99.90;;;;;;2496336;23;20046;-73
2023/08/26 04:35:40;;;;;;;4.78;1.73;;;17.30;99.90;;;;;;2496884;23;20011;-72
2023/08/26 04:36:41;;;;;;;3.53;1.70;;;17.20;99.90;;;;;;2497750;23;20425;-73
2023/08/26 04:37:41;;;;;;;5.00;2.33;;;17.20;99.90;;;;;;2497304;23;20508;-73
2023/08/26 04:38:42;;;;;;;2.92;1.60;;;17.20;99.90;;;;;;2497395;23;20420;-73
2023/08/26 04:39:42;;;;;;;4.43;2.03;;;17.20;99.90;;;;;;2496753;23;20055;-73
2023/08/26 04:40:43;;;;;;;4.28;2.08;;;17.20;99.90;;;;;;2484821;23;20044;-73
2023/08/26 04:41:44;;;;;;;6.45;2.03;;;17.20;99.90;;;;;;2484130;23;20008;-73
2023/08/26 04:42:45;;;;;;;3.50;2.05;;;17.20;99.90;;;;;;2495785;23;20059;-73
2023/08/26 04:43:47;;;;;;;6.20;2.40;;;17.20;99.90;;;;;;2497099;23;20007;-73
2023/08/26 04:44:47;;;;;;;3.13;2.10;;;17.20;99.90;;;;;;2497981;23;20004;-73
2023/08/26 04:45:48;;;;;;;4.40;1.83;;;17.20;99.90;;;;;;2496964;23;20069;-73
2023/08/26 04:46:48;;;;;;;5.18;2.00;;;17.20;99.90;;;;;;2497474;23;20007;-73
2023/08/26 04:47:49;;;;;;;5.25;2.00;;;17.20;99.90;;;;;;2483424;23;20322;-73
2023/08/26 04:48:50;;;;;;;4.70;2.00;;;17.20;99.90;;;;;;2484238;23;20003;-73
2023/08/26 04:49:50;;;;;;;5.50;2.10;;;17.20;99.90;;;;;;2497812;23;20021;-73
2023/08/26 04:50:51;;;;;;;2.72;1.50;;;17.20;99.90;;;;;;2496975;23;20039;-72
2023/08/26 04:51:54;;;;;;;6.20;1.88;;;17.20;99.90;;;;;;2498374;23;20014;-73
2023/08/26 04:52:55;;;;;;;4.80;1.75;;;17.10;99.90;;;;;;2496889;23;20022;-73
2023/08/26 04:53:55;;;;;;;4.47;2.22;;;17.10;99.90;;;;;;2496868;23;20007;-73
2023/08/26 04:54:56;;;;;;;3.95;1.67;;;17.10;99.90;;;;;;2497328;23;19999;-73
2023/08/26 04:55:56;;;;;;;6.32;2.15;;;17.10;99.90;;;;;;2496081;23;20382;-72
2023/08/26 04:56:57;;;;;;;6.95;1.73;;;17.10;99.90;;;;;;2496122;23;20007;-73
2023/08/26 04:57:58;;;;;;;5.97;2.25;;;17.10;99.90;;;;;;2496984;23;20324;-72
2023/08/26 04:58:58;;;;;;;6.20;2.38;;;17.10;99.90;;;;;;2495923;23;20030;-73
2023/08/26 04:59:59;;;;;;;5.85;1.85;;;17.10;99.90;;;;;;2483563;23;20008;-73
2023/08/26 05:00:59;;;;;;;4.53;2.20;;;17.10;99.90;;;;;;2484950;23;20004;-72
2023/08/26 05:02:00;;;;;;;3.88;2.10;;;17.10;99.90;;;;;;2496015;23;20004;-73
2023/08/26 05:03:00;;;;;;;5.20;1.70;;;17.10;99.90;;;;;;2497006;23;20314;-72
2023/08/26 05:04:01;;;;;;;3.40;1.88;;;17.10;99.90;;;;;;2484765;23;20019;-72
2023/08/26 05:05:02;;;;;;;6.43;2.03;;;17.10;99.90;;;;;;2483947;23;20035;-72
2023/08/26 05:06:03;;;;;;;3.85;2.00;;;17.10;99.90;;;;;;2497558;23;20019;-73
2023/08/26 05:07:04;;;;;;;5.63;2.30;;;17.10;99.90;;;;;;2496859;23;20003;-72
2023/08/26 05:08:05;;;;;;;5.03;2.15;;;17.10;99.90;;;;;;2497815;23;20051;-72
2023/08/26 05:09:05;;;;;;;6.53;2.15;;;17.10;99.90;;;;;;2497373;23;20007;-72
2023/08/26 05:10:07;;;;;;;5.32;1.77;;;17.10;99.90;;;;;;2497852;23;20071;-72
2023/08/26 05:11:07;;;;;;;4.15;1.65;;;17.10;99.90;;;;;;2497116;23;20003;-72
2023/08/26 05:12:08;;;;;;;6.40;2.10;;;17.10;99.90;;;;;;2497379;23;20003;-72
2023/08/26 05:13:09;;;;;;;5.63;2.38;;;17.10;99.90;;;;;;2497083;23;20003;-72
2023/08/26 05:14:09;;;;;;;8.27;2.53;;;17.10;99.90;;;;;;2496904;23;20010;-73